PWSweather.com
Personal Weather Stations
Station Observations
WATERF01
WaterfordIE

WaterfordIE

Lat: 52.2412507, Lon: -7.1414691

Elevation: 65

Station Type: Davis Vantage Vue

www.waterfordweather.com

High Low Average
Temperature 64.6°F18.1°C 56.4°F13.6°C 61.3°F16.3°C
Dew Point 60.0°F15.6°C 52.2°F11.2°C 57.5°F14.2°C
Winds 17.3 mph 27.8 kmh Calm Calm 7.0 mph SW11.3 kmh SW
Wind Gusts 25.3 mph40.7 kmh -- 12.0 mph19.3 kmh
Humidity 91% 82% 87%
Pressure 30.03 in1016.9 mb 29.96 in1014.6 mb -
Precipitation 0.16 in4.1 mm - -
Hour Temp Dew Point Humidity Winds Wind Gusts Pressure Precip Precip Rate Daily Precip Total
12:00 AM 56.8°F13.8°C 52.7°F11.5°C 86% 1.2 mph W1.9 kmh W 2.3 mph3.7 kmh 30.00 in1015.9 mb - 0.00 in0.0 mm 0.00 in0.0 mm
12:10 AM 56.7°F13.7°C 52.6°F11.4°C 86% 2.3 mph W3.7 kmh W 8.1 mph13.0 kmh 30.00 in1015.9 mb - 0.00 in0.0 mm 0.00 in0.0 mm
12:20 AM 56.7°F13.7°C 52.6°F11.4°C 86% 2.3 mph WSW3.7 kmh WSW 5.8 mph9.3 kmh 30.00 in1015.9 mb - 0.00 in0.0 mm 0.00 in0.0 mm
12:30 AM 56.6°F13.7°C 52.5°F11.4°C 86% 2.3 mph W3.7 kmh W 4.6 mph7.4 kmh 30.00 in1015.9 mb - 0.00 in0.0 mm 0.00 in0.0 mm
12:40 AM 56.4°F13.6°C 52.3°F11.3°C 86% 1.2 mph WSW1.9 kmh WSW 2.3 mph3.7 kmh 30.00 in1015.9 mb - 0.00 in0.0 mm 0.00 in0.0 mm
12:50 AM 56.4°F13.6°C 52.3°F11.3°C 86% Calm Calm -- 30.00 in1015.9 mb - 0.00 in0.0 mm 0.00 in0.0 mm
01:00 AM 56.5°F13.6°C 52.4°F11.3°C 86% Calm Calm -- 30.00 in1015.9 mb - 0.00 in0.0 mm 0.00 in0.0 mm
01:10 AM 56.4°F13.6°C 52.2°F11.2°C 86% Calm Calm -- 30.00 in1015.9 mb - 0.00 in0.0 mm 0.00 in0.0 mm
01:20 AM 56.5°F13.6°C 52.4°F11.3°C 86% Calm Calm -- 30.00 in1015.9 mb - 0.00 in0.0 mm 0.00 in0.0 mm
01:30 AM 56.8°F13.8°C 52.6°F11.4°C 86% Calm Calm -- 30.00 in1015.9 mb - 0.00 in0.0 mm 0.00 in0.0 mm
01:40 AM 57.0°F13.9°C 52.9°F11.6°C 86% Calm Calm -- 30.01 in1016.3 mb - 0.00 in0.0 mm 0.00 in0.0 mm
01:50 AM 57.2°F14.0°C 53.0°F11.7°C 86% Calm Calm -- 30.01 in1016.3 mb - 0.00 in0.0 mm 0.00 in0.0 mm
02:00 AM 57.4°F14.1°C 53.2°F11.8°C 86% Calm Calm -- 30.01 in1016.3 mb - 0.00 in0.0 mm 0.00 in0.0 mm
02:10 AM 57.6°F14.2°C 53.4°F11.9°C 86% Calm Calm -- 30.00 in1015.9 mb - 0.00 in0.0 mm 0.00 in0.0 mm
02:20 AM 57.8°F14.3°C 53.6°F12.0°C 86% 2.3 mph WSW3.7 kmh WSW 2.3 mph3.7 kmh 30.01 in1016.3 mb - 0.00 in0.0 mm 0.00 in0.0 mm
02:30 AM 58.6°F14.8°C 54.4°F12.4°C 86% 3.5 mph SW5.6 kmh SW 5.8 mph9.3 kmh 30.01 in1016.3 mb - 0.00 in0.0 mm 0.00 in0.0 mm
02:40 AM 59.0°F15.0°C 54.8°F12.7°C 86% 2.3 mph WSW3.7 kmh WSW 5.8 mph9.3 kmh 30.01 in1016.3 mb - 0.00 in0.0 mm 0.00 in0.0 mm
02:50 AM 59.0°F15.0°C 54.9°F12.7°C 86% 1.2 mph NW1.9 kmh NW 5.8 mph9.3 kmh 30.01 in1016.3 mb - 0.00 in0.0 mm 0.00 in0.0 mm
03:00 AM 59.2°F15.1°C 55.0°F12.8°C 86% 4.6 mph SW7.4 kmh SW 8.1 mph13.0 kmh 30.00 in1015.9 mb - 0.00 in0.0 mm 0.00 in0.0 mm
03:10 AM 59.6°F15.3°C 55.4°F13.0°C 86% 3.5 mph WSW5.6 kmh WSW 8.1 mph13.0 kmh 30.00 in1015.9 mb - 0.00 in0.0 mm 0.00 in0.0 mm
03:20 AM 59.8°F15.4°C 55.6°F13.1°C 86% 4.6 mph WSW7.4 kmh WSW 8.1 mph13.0 kmh 30.00 in1015.9 mb - 0.00 in0.0 mm 0.00 in0.0 mm
03:30 AM 59.9°F15.5°C 55.7°F13.2°C 86% 5.8 mph W9.3 kmh W 8.1 mph13.0 kmh 30.01 in1016.3 mb - 0.00 in0.0 mm 0.00 in0.0 mm
03:40 AM 59.7°F15.4°C 55.5°F13.1°C 86% 6.9 mph W11.1 kmh W 12.7 mph20.4 kmh 30.01 in1016.3 mb - 0.00 in0.0 mm 0.00 in0.0 mm
03:50 AM 59.6°F15.3°C 55.4°F13.0°C 86% 3.5 mph WSW5.6 kmh WSW 5.8 mph9.3 kmh 30.01 in1016.3 mb - 0.00 in0.0 mm 0.00 in0.0 mm
04:00 AM 59.5°F15.3°C 55.3°F12.9°C 86% 3.5 mph WSW5.6 kmh WSW 9.2 mph14.8 kmh 30.01 in1016.3 mb - 0.00 in0.0 mm 0.00 in0.0 mm
04:10 AM 59.3°F15.2°C 55.1°F12.8°C 86% 4.6 mph S7.4 kmh S 8.1 mph13.0 kmh 30.01 in1016.3 mb - 0.00 in0.0 mm 0.00 in0.0 mm
04:20 AM 59.4°F15.2°C 55.2°F12.9°C 86% 5.8 mph WNW9.3 kmh WNW 11.5 mph18.5 kmh 30.00 in1015.9 mb - 0.00 in0.0 mm 0.00 in0.0 mm
04:30 AM 59.4°F15.2°C 55.2°F12.9°C 86% 5.8 mph SW9.3 kmh SW 8.1 mph13.0 kmh 30.00 in1015.9 mb - 0.00 in0.0 mm 0.00 in0.0 mm
04:40 AM 59.4°F15.2°C 55.2°F12.9°C 86% 4.6 mph WSW7.4 kmh WSW 11.5 mph18.5 kmh 30.00 in1015.9 mb - 0.00 in0.0 mm 0.00 in0.0 mm
04:50 AM 59.4°F15.2°C 55.2°F12.9°C 86% 5.8 mph SW9.3 kmh SW 9.2 mph14.8 kmh 30.00 in1015.9 mb - 0.00 in0.0 mm 0.00 in0.0 mm
05:00 AM 59.3°F15.2°C 55.1°F12.8°C 86% 3.5 mph WSW5.6 kmh WSW 11.5 mph18.5 kmh 30.00 in1015.9 mb - 0.00 in0.0 mm 0.00 in0.0 mm
05:10 AM 59.2°F15.1°C 55.0°F12.8°C 86% 5.8 mph WSW9.3 kmh WSW 8.1 mph13.0 kmh 30.00 in1015.9 mb - 0.00 in0.0 mm 0.00 in0.0 mm
05:20 AM 59.4°F15.2°C 55.2°F12.9°C 86% 4.6 mph WNW7.4 kmh WNW 8.1 mph13.0 kmh 30.01 in1016.3 mb - 0.00 in0.0 mm 0.00 in0.0 mm
05:30 AM 59.6°F15.3°C 55.4°F13.0°C 86% 4.6 mph WSW7.4 kmh WSW 8.1 mph13.0 kmh 30.01 in1016.3 mb - 0.00 in0.0 mm 0.00 in0.0 mm
05:40 AM 59.8°F15.4°C 55.6°F13.1°C 86% 2.3 mph SW3.7 kmh SW 5.8 mph9.3 kmh 30.01 in1016.3 mb - 0.00 in0.0 mm 0.00 in0.0 mm
05:50 AM 59.9°F15.5°C 55.7°F13.2°C 86% 3.5 mph WSW5.6 kmh WSW 8.1 mph13.0 kmh 30.02 in1016.6 mb - 0.00 in0.0 mm 0.00 in0.0 mm
06:00 AM 60.1°F15.6°C 55.9°F13.3°C 86% 4.6 mph SSW7.4 kmh SSW 5.8 mph9.3 kmh 30.01 in1016.3 mb - 0.00 in0.0 mm 0.00 in0.0 mm
06:10 AM 60.3°F15.7°C 56.1°F13.4°C 86% 4.6 mph S7.4 kmh S 8.1 mph13.0 kmh 30.01 in1016.3 mb - 0.00 in0.0 mm 0.00 in0.0 mm
06:20 AM 60.6°F15.9°C 56.4°F13.6°C 86% 4.6 mph SSW7.4 kmh SSW 6.9 mph11.1 kmh 30.01 in1016.3 mb - 0.00 in0.0 mm 0.00 in0.0 mm
06:30 AM 60.8°F16.0°C 56.6°F13.7°C 86% 8.1 mph WSW13.0 kmh WSW 13.8 mph22.2 kmh 30.02 in1016.6 mb - 0.00 in0.0 mm 0.00 in0.0 mm
06:40 AM 60.8°F16.0°C 56.5°F13.6°C 86% 4.6 mph WSW7.4 kmh WSW 9.2 mph14.8 kmh 30.02 in1016.6 mb - 0.00 in0.0 mm 0.00 in0.0 mm
06:50 AM 60.7°F15.9°C 56.8°F13.8°C 87% 6.9 mph SW11.1 kmh SW 11.5 mph18.5 kmh 30.02 in1016.6 mb - 0.00 in0.0 mm 0.00 in0.0 mm
07:00 AM 60.6°F15.9°C 56.7°F13.7°C 87% 5.8 mph W9.3 kmh W 9.2 mph14.8 kmh 30.02 in1016.6 mb - 0.00 in0.0 mm 0.00 in0.0 mm
07:10 AM 60.6°F15.9°C 56.7°F13.7°C 87% 5.8 mph W9.3 kmh W 11.5 mph18.5 kmh 30.02 in1016.6 mb - 0.00 in0.0 mm 0.00 in0.0 mm
07:20 AM 60.5°F15.8°C 56.6°F13.7°C 87% 6.9 mph WSW11.1 kmh WSW 11.5 mph18.5 kmh 30.02 in1016.6 mb - 0.00 in0.0 mm 0.00 in0.0 mm
07:30 AM 60.4°F15.8°C 56.5°F13.6°C 87% 8.1 mph WSW13.0 kmh WSW 11.5 mph18.5 kmh 30.02 in1016.6 mb - 0.00 in0.0 mm 0.00 in0.0 mm
07:40 AM 60.7°F15.9°C 56.8°F13.8°C 87% 4.6 mph WSW7.4 kmh WSW 11.5 mph18.5 kmh 30.02 in1016.6 mb - 0.00 in0.0 mm 0.00 in0.0 mm
07:50 AM 60.9°F16.1°C 57.0°F13.9°C 87% 3.5 mph W5.6 kmh W 5.8 mph9.3 kmh 30.03 in1016.9 mb - 0.00 in0.0 mm 0.00 in0.0 mm
08:00 AM 61.2°F16.2°C 57.3°F14.1°C 87% 5.8 mph WSW9.3 kmh WSW 8.1 mph13.0 kmh 30.03 in1016.9 mb - 0.00 in0.0 mm 0.00 in0.0 mm
08:10 AM 61.5°F16.4°C 57.6°F14.2°C 87% 4.6 mph N7.4 kmh N 8.1 mph13.0 kmh 30.03 in1016.9 mb - 0.00 in0.0 mm 0.00 in0.0 mm
08:20 AM 61.6°F16.4°C 57.7°F14.3°C 87% 5.8 mph SW9.3 kmh SW 8.1 mph13.0 kmh 30.03 in1016.9 mb - 0.01 in0.3 mm 0.01 in0.3 mm
08:30 AM 61.6°F16.4°C 57.7°F14.3°C 87% 8.1 mph SW13.0 kmh SW 11.5 mph18.5 kmh 30.03 in1016.9 mb - 0.02 in0.5 mm 0.02 in0.5 mm
08:40 AM 61.6°F16.4°C 57.7°F14.3°C 87% 6.9 mph WSW11.1 kmh WSW 9.2 mph14.8 kmh 30.03 in1016.9 mb - 0.02 in0.5 mm 0.02 in0.5 mm
08:50 AM 61.6°F16.4°C 57.7°F14.3°C 87% 5.8 mph SW9.3 kmh SW 8.1 mph13.0 kmh 30.03 in1016.9 mb - 0.03 in0.8 mm 0.03 in0.8 mm
09:00 AM 61.8°F16.6°C 57.9°F14.4°C 87% 6.9 mph SSW11.1 kmh SSW 9.2 mph14.8 kmh 30.02 in1016.6 mb - 0.03 in0.8 mm 0.03 in0.8 mm
09:10 AM 62.1°F16.7°C 58.2°F14.6°C 87% 6.9 mph SSW11.1 kmh SSW 11.5 mph18.5 kmh 30.02 in1016.6 mb - 0.03 in0.8 mm 0.03 in0.8 mm
09:20 AM 62.2°F16.8°C 58.0°F14.4°C 86% 9.2 mph S14.8 kmh S 13.8 mph22.2 kmh 30.02 in1016.6 mb - 0.02 in0.5 mm 0.03 in0.8 mm
09:30 AM 62.3°F16.8°C 58.1°F14.5°C 86% 10.4 mph SW16.7 kmh SW 13.8 mph22.2 kmh 30.02 in1016.6 mb - 0.02 in0.5 mm 0.03 in0.8 mm
09:40 AM 62.4°F16.9°C 58.2°F14.6°C 86% 9.2 mph SSW14.8 kmh SSW 11.5 mph18.5 kmh 30.02 in1016.6 mb - 0.01 in0.3 mm 0.03 in0.8 mm
09:50 AM 62.7°F17.1°C 58.1°F14.5°C 85% 11.5 mph SSW18.5 kmh SSW 15.0 mph24.1 kmh 30.02 in1016.6 mb - 0.00 in0.0 mm 0.03 in0.8 mm
10:00 AM 62.9°F17.2°C 58.3°F14.6°C 85% 11.5 mph S18.5 kmh S 19.6 mph31.5 kmh 30.02 in1016.6 mb - 0.00 in0.0 mm 0.03 in0.8 mm
10:10 AM 63.3°F17.4°C 58.4°F14.7°C 84% 10.4 mph SW16.7 kmh SW 15.0 mph24.1 kmh 30.02 in1016.6 mb - 0.00 in0.0 mm 0.03 in0.8 mm
10:20 AM 63.3°F17.4°C 58.4°F14.7°C 84% 10.4 mph SW16.7 kmh SW 13.8 mph22.2 kmh 30.02 in1016.6 mb - 0.00 in0.0 mm 0.03 in0.8 mm
10:30 AM 63.1°F17.3°C 58.5°F14.7°C 85% 9.2 mph S14.8 kmh S 15.0 mph24.1 kmh 30.02 in1016.6 mb - 0.00 in0.0 mm 0.03 in0.8 mm
10:40 AM 63.4°F17.4°C 58.5°F14.7°C 84% 12.7 mph SSW20.4 kmh SSW 15.0 mph24.1 kmh 30.01 in1016.3 mb - 0.00 in0.0 mm 0.03 in0.8 mm
10:50 AM 63.7°F17.6°C 58.4°F14.7°C 83% 10.4 mph SW16.7 kmh SW 16.1 mph25.9 kmh 30.02 in1016.6 mb - 0.00 in0.0 mm 0.03 in0.8 mm
11:00 AM 63.7°F17.6°C 58.5°F14.7°C 83% 9.2 mph SW14.8 kmh SW 15.0 mph24.1 kmh 30.02 in1016.6 mb - 0.00 in0.0 mm 0.03 in0.8 mm
11:10 AM 63.8°F17.7°C 58.5°F14.7°C 83% 11.5 mph SW18.5 kmh SW 18.4 mph29.6 kmh 30.02 in1016.6 mb - 0.00 in0.0 mm 0.03 in0.8 mm
11:20 AM 64.0°F17.8°C 58.7°F14.8°C 83% 11.5 mph SW18.5 kmh SW 13.8 mph22.2 kmh 30.02 in1016.6 mb - 0.00 in0.0 mm 0.03 in0.8 mm
11:30 AM 64.3°F17.9°C 59.0°F15.0°C 83% 10.4 mph SW16.7 kmh SW 11.5 mph18.5 kmh 30.02 in1016.6 mb - 0.00 in0.0 mm 0.03 in0.8 mm
11:40 AM 64.6°F18.1°C 59.0°F15.0°C 82% 12.7 mph WSW20.4 kmh WSW 19.6 mph31.5 kmh 30.02 in1016.6 mb - 0.00 in0.0 mm 0.03 in0.8 mm
11:50 AM 64.6°F18.1°C 59.0°F15.0°C 82% 13.8 mph SSW22.2 kmh SSW 20.7 mph33.3 kmh 30.01 in1016.3 mb - 0.00 in0.0 mm 0.03 in0.8 mm
12:00 PM 63.6°F17.6°C 58.6°F14.8°C 84% 13.8 mph SW22.2 kmh SW 19.6 mph31.5 kmh 30.02 in1016.6 mb - 0.00 in0.0 mm 0.03 in0.8 mm
12:10 PM 63.0°F17.2°C 58.4°F14.7°C 85% 13.8 mph SSW22.2 kmh SSW 20.7 mph33.3 kmh 30.01 in1016.3 mb - 0.01 in0.3 mm 0.04 in1.0 mm
12:20 PM 62.5°F16.9°C 58.3°F14.6°C 86% 10.4 mph SSW16.7 kmh SSW 15.0 mph24.1 kmh 30.01 in1016.3 mb - 0.01 in0.3 mm 0.04 in1.0 mm
12:30 PM 62.2°F16.8°C 58.0°F14.4°C 86% 10.4 mph S16.7 kmh S 19.6 mph31.5 kmh 30.01 in1016.3 mb - 0.01 in0.3 mm 0.04 in1.0 mm
12:40 PM 61.8°F16.6°C 57.3°F14.1°C 85% 9.2 mph SW14.8 kmh SW 12.7 mph20.4 kmh 30.02 in1016.6 mb - 0.01 in0.3 mm 0.04 in1.0 mm
12:50 PM 61.5°F16.4°C 57.3°F14.1°C 86% 17.3 mph SSW27.8 kmh SSW 21.9 mph35.2 kmh 30.01 in1016.3 mb - 0.01 in0.3 mm 0.04 in1.0 mm
01:00 PM 61.4°F16.3°C 57.1°F13.9°C 86% 9.2 mph SW14.8 kmh SW 13.8 mph22.2 kmh 30.00 in1015.9 mb - 0.01 in0.3 mm 0.04 in1.0 mm
01:10 PM 61.3°F16.3°C 57.1°F13.9°C 86% 12.7 mph WSW20.4 kmh WSW 16.1 mph25.9 kmh 30.00 in1015.9 mb - 0.01 in0.3 mm 0.05 in1.3 mm
01:20 PM 61.3°F16.3°C 57.0°F13.9°C 86% 12.7 mph SSW20.4 kmh SSW 19.6 mph31.5 kmh 30.00 in1015.9 mb - 0.01 in0.3 mm 0.05 in1.3 mm
01:30 PM 61.5°F16.4°C 57.3°F14.1°C 86% 16.1 mph SSW25.9 kmh SSW 23.0 mph37.0 kmh 29.99 in1015.6 mb - 0.01 in0.3 mm 0.05 in1.3 mm
01:40 PM 61.8°F16.6°C 57.9°F14.4°C 87% 13.8 mph SW22.2 kmh SW 19.6 mph31.5 kmh 29.99 in1015.6 mb - 0.01 in0.3 mm 0.05 in1.3 mm
01:50 PM 62.3°F16.8°C 58.4°F14.7°C 87% 12.7 mph SSW20.4 kmh SSW 20.7 mph33.3 kmh 29.99 in1015.6 mb - 0.01 in0.3 mm 0.05 in1.3 mm
02:00 PM 62.3°F16.8°C 58.4°F14.7°C 87% 16.1 mph SSW25.9 kmh SSW 21.9 mph35.2 kmh 29.99 in1015.6 mb - 0.01 in0.3 mm 0.05 in1.3 mm
02:10 PM 62.2°F16.8°C 58.2°F14.6°C 87% 10.4 mph WSW16.7 kmh WSW 16.1 mph25.9 kmh 30.00 in1015.9 mb - 0.02 in0.5 mm 0.06 in1.5 mm
02:20 PM 61.8°F16.6°C 57.9°F14.4°C 87% 10.4 mph SW16.7 kmh SW 19.6 mph31.5 kmh 30.00 in1015.9 mb - 0.02 in0.5 mm 0.06 in1.5 mm
02:30 PM 61.5°F16.4°C 57.6°F14.2°C 87% 12.7 mph SW20.4 kmh SW 16.1 mph25.9 kmh 30.00 in1015.9 mb - 0.02 in0.5 mm 0.07 in1.8 mm
02:40 PM 61.4°F16.3°C 57.5°F14.2°C 87% 11.5 mph SW18.5 kmh SW 13.8 mph22.2 kmh 29.99 in1015.6 mb - 0.03 in0.8 mm 0.08 in2.0 mm
02:50 PM 61.3°F16.3°C 57.7°F14.3°C 88% 10.4 mph WSW16.7 kmh WSW 16.1 mph25.9 kmh 29.99 in1015.6 mb - 0.03 in0.8 mm 0.08 in2.0 mm
03:00 PM 61.3°F16.3°C 57.7°F14.3°C 88% 9.2 mph SSW14.8 kmh SSW 16.1 mph25.9 kmh 29.99 in1015.6 mb - 0.03 in0.8 mm 0.08 in2.0 mm
03:10 PM 61.4°F16.3°C 57.8°F14.3°C 88% 12.7 mph SSW20.4 kmh SSW 16.1 mph25.9 kmh 29.99 in1015.6 mb - 0.02 in0.5 mm 0.09 in2.3 mm
03:20 PM 61.5°F16.4°C 57.9°F14.4°C 88% 12.7 mph SW20.4 kmh SW 16.1 mph25.9 kmh 29.98 in1015.2 mb - 0.03 in0.8 mm 0.09 in2.3 mm
03:30 PM 61.6°F16.4°C 58.0°F14.4°C 88% 12.7 mph SW20.4 kmh SW 19.6 mph31.5 kmh 29.98 in1015.2 mb - 0.03 in0.8 mm 0.10 in2.5 mm
03:40 PM 61.9°F16.6°C 58.3°F14.6°C 88% 13.8 mph SW22.2 kmh SW 20.7 mph33.3 kmh 29.97 in1014.9 mb - 0.02 in0.5 mm 0.10 in2.5 mm
03:50 PM 62.0°F16.7°C 58.7°F14.8°C 89% 16.1 mph SW25.9 kmh SW 19.6 mph31.5 kmh 29.96 in1014.6 mb - 0.03 in0.8 mm 0.11 in2.8 mm
04:00 PM 62.5°F16.9°C 59.2°F15.1°C 89% 13.8 mph SSW22.2 kmh SSW 25.3 mph40.7 kmh 29.96 in1014.6 mb - 0.03 in0.8 mm 0.11 in2.8 mm
04:10 PM 62.8°F17.1°C 59.5°F15.3°C 89% 10.4 mph SW16.7 kmh SW 16.1 mph25.9 kmh 29.97 in1014.9 mb - 0.02 in0.5 mm 0.11 in2.8 mm
04:20 PM 62.7°F17.1°C 59.4°F15.2°C 89% 8.1 mph SW13.0 kmh SW 19.6 mph31.5 kmh 29.97 in1014.9 mb - 0.02 in0.5 mm 0.11 in2.8 mm
04:30 PM 62.7°F17.1°C 59.4°F15.2°C 89% 11.5 mph SW18.5 kmh SW 16.1 mph25.9 kmh 29.98 in1015.2 mb - 0.01 in0.3 mm 0.11 in2.8 mm
04:40 PM 62.6°F17.0°C 59.3°F15.2°C 89% 10.4 mph SSW16.7 kmh SSW 16.1 mph25.9 kmh 29.98 in1015.2 mb - 0.01 in0.3 mm 0.11 in2.8 mm
04:50 PM 62.8°F17.1°C 59.5°F15.3°C 89% 8.1 mph SSW13.0 kmh SSW 16.1 mph25.9 kmh 29.98 in1015.2 mb - 0.00 in0.0 mm 0.11 in2.8 mm
05:00 PM 62.8°F17.1°C 59.5°F15.3°C 89% 12.7 mph SSW20.4 kmh SSW 18.4 mph29.6 kmh 29.98 in1015.2 mb - 0.00 in0.0 mm 0.11 in2.8 mm
05:10 PM 62.8°F17.1°C 59.5°F15.3°C 89% 9.2 mph SW14.8 kmh SW 15.0 mph24.1 kmh 29.98 in1015.2 mb - 0.00 in0.0 mm 0.11 in2.8 mm
05:20 PM 62.8°F17.1°C 59.5°F15.3°C 89% 8.1 mph WSW13.0 kmh WSW 18.4 mph29.6 kmh 29.98 in1015.2 mb - 0.01 in0.3 mm 0.12 in3.0 mm
05:30 PM 62.8°F17.1°C 59.5°F15.3°C 89% 5.8 mph WSW9.3 kmh WSW 15.0 mph24.1 kmh 29.98 in1015.2 mb - 0.01 in0.3 mm 0.12 in3.0 mm
05:40 PM 62.8°F17.1°C 59.5°F15.3°C 89% 9.2 mph SSW14.8 kmh SSW 18.4 mph29.6 kmh 29.98 in1015.2 mb - 0.02 in0.5 mm 0.13 in3.3 mm
05:50 PM 62.8°F17.1°C 59.5°F15.3°C 89% 9.2 mph WSW14.8 kmh WSW 15.0 mph24.1 kmh 29.98 in1015.2 mb - 0.02 in0.5 mm 0.13 in3.3 mm
06:00 PM 62.8°F17.1°C 59.5°F15.3°C 89% 13.8 mph SW22.2 kmh SW 20.7 mph33.3 kmh 29.98 in1015.2 mb - 0.02 in0.5 mm 0.13 in3.3 mm
06:10 PM 62.8°F17.1°C 59.5°F15.3°C 89% 9.2 mph SW14.8 kmh SW 15.0 mph24.1 kmh 29.98 in1015.2 mb - 0.02 in0.5 mm 0.13 in3.3 mm
06:20 PM 62.8°F17.1°C 59.5°F15.3°C 89% 6.9 mph WSW11.1 kmh WSW 12.7 mph20.4 kmh 29.98 in1015.2 mb - 0.02 in0.5 mm 0.13 in3.3 mm
06:30 PM 62.9°F17.2°C 59.6°F15.3°C 89% 8.1 mph S13.0 kmh S 13.8 mph22.2 kmh 29.98 in1015.2 mb - 0.02 in0.5 mm 0.13 in3.3 mm
06:40 PM 62.9°F17.2°C 60.0°F15.6°C 90% 5.8 mph SW9.3 kmh SW 11.5 mph18.5 kmh 29.98 in1015.2 mb - 0.01 in0.3 mm 0.13 in3.3 mm
06:50 PM 63.0°F17.2°C 60.0°F15.6°C 90% 6.9 mph WSW11.1 kmh WSW 13.8 mph22.2 kmh 29.98 in1015.2 mb - 0.02 in0.5 mm 0.14 in3.6 mm
07:00 PM 63.0°F17.2°C 60.0°F15.6°C 90% 9.2 mph SW14.8 kmh SW 16.1 mph25.9 kmh 29.98 in1015.2 mb - 0.02 in0.5 mm 0.14 in3.6 mm
07:10 PM 63.0°F17.2°C 60.0°F15.6°C 90% 6.9 mph SW11.1 kmh SW 12.7 mph20.4 kmh 29.98 in1015.2 mb - 0.02 in0.5 mm 0.15 in3.8 mm
07:20 PM 62.9°F17.2°C 59.9°F15.5°C 90% 6.9 mph SW11.1 kmh SW 9.2 mph14.8 kmh 29.99 in1015.6 mb - 0.02 in0.5 mm 0.15 in3.8 mm
07:30 PM 62.8°F17.1°C 59.8°F15.4°C 90% 5.8 mph WNW9.3 kmh WNW 11.5 mph18.5 kmh 29.99 in1015.6 mb - 0.02 in0.5 mm 0.15 in3.8 mm
07:40 PM 62.9°F17.2°C 59.9°F15.5°C 90% 6.9 mph WSW11.1 kmh WSW 13.8 mph22.2 kmh 29.99 in1015.6 mb - 0.02 in0.5 mm 0.15 in3.8 mm
07:50 PM 63.0°F17.2°C 60.0°F15.6°C 90% 5.8 mph WSW9.3 kmh WSW 11.5 mph18.5 kmh 29.99 in1015.6 mb - 0.01 in0.3 mm 0.15 in3.8 mm
08:00 PM 62.9°F17.2°C 59.9°F15.5°C 90% 6.9 mph SW11.1 kmh SW 12.7 mph20.4 kmh 30.00 in1015.9 mb - 0.01 in0.3 mm 0.15 in3.8 mm
08:10 PM 62.9°F17.2°C 59.9°F15.5°C 90% 6.9 mph W11.1 kmh W 8.1 mph13.0 kmh 30.00 in1015.9 mb - 0.01 in0.3 mm 0.15 in3.8 mm
08:20 PM 62.9°F17.2°C 59.9°F15.5°C 90% 6.9 mph W11.1 kmh W 12.7 mph20.4 kmh 30.00 in1015.9 mb - 0.00 in0.0 mm 0.15 in3.8 mm
08:30 PM 62.9°F17.2°C 59.9°F15.5°C 90% 8.1 mph WSW13.0 kmh WSW 13.8 mph22.2 kmh 30.00 in1015.9 mb - 0.00 in0.0 mm 0.15 in3.8 mm
08:40 PM 62.8°F17.1°C 59.8°F15.4°C 90% 5.8 mph WSW9.3 kmh WSW 13.8 mph22.2 kmh 30.00 in1015.9 mb - 0.00 in0.0 mm 0.15 in3.8 mm
08:50 PM 62.8°F17.1°C 59.8°F15.4°C 90% 8.1 mph WSW13.0 kmh WSW 13.8 mph22.2 kmh 30.01 in1016.3 mb - 0.00 in0.0 mm 0.15 in3.8 mm
09:00 PM 62.8°F17.1°C 59.8°F15.4°C 90% 6.9 mph SW11.1 kmh SW 11.5 mph18.5 kmh 30.01 in1016.3 mb - 0.00 in0.0 mm 0.15 in3.8 mm
09:10 PM 62.8°F17.1°C 59.8°F15.4°C 90% 5.8 mph S9.3 kmh S 9.2 mph14.8 kmh 30.01 in1016.3 mb - 0.00 in0.0 mm 0.15 in3.8 mm
09:20 PM 62.9°F17.2°C 59.9°F15.5°C 90% 6.9 mph WNW11.1 kmh WNW 13.8 mph22.2 kmh 30.01 in1016.3 mb - 0.00 in0.0 mm 0.15 in3.8 mm
09:30 PM 62.8°F17.1°C 59.9°F15.5°C 90% 5.8 mph WSW9.3 kmh WSW 8.1 mph13.0 kmh 30.01 in1016.3 mb - 0.00 in0.0 mm 0.15 in3.8 mm
09:40 PM 62.8°F17.1°C 59.8°F15.4°C 90% 5.8 mph W9.3 kmh W 11.5 mph18.5 kmh 30.01 in1016.3 mb - 0.00 in0.0 mm 0.15 in3.8 mm
09:50 PM 62.8°F17.1°C 59.8°F15.4°C 90% 10.4 mph WSW16.7 kmh WSW 18.4 mph29.6 kmh 30.01 in1016.3 mb - 0.00 in0.0 mm 0.15 in3.8 mm
10:00 PM 62.8°F17.1°C 59.8°F15.4°C 90% 5.8 mph WNW9.3 kmh WNW 12.7 mph20.4 kmh 30.01 in1016.3 mb - 0.00 in0.0 mm 0.15 in3.8 mm
10:10 PM 62.8°F17.1°C 59.8°F15.4°C 90% 5.8 mph SW9.3 kmh SW 11.5 mph18.5 kmh 30.01 in1016.3 mb - 0.01 in0.3 mm 0.16 in4.1 mm
10:20 PM 62.8°F17.1°C 59.8°F15.4°C 90% 5.8 mph W9.3 kmh W 11.5 mph18.5 kmh 30.01 in1016.3 mb - 0.01 in0.3 mm 0.16 in4.1 mm
10:30 PM 62.8°F17.1°C 59.8°F15.4°C 90% 5.8 mph WSW9.3 kmh WSW 8.1 mph13.0 kmh 30.01 in1016.3 mb - 0.01 in0.3 mm 0.16 in4.1 mm
10:40 PM 62.8°F17.1°C 59.8°F15.4°C 90% 8.1 mph SW13.0 kmh SW 11.5 mph18.5 kmh 30.01 in1016.3 mb - 0.01 in0.3 mm 0.16 in4.1 mm
10:50 PM 62.9°F17.2°C 59.9°F15.5°C 90% 5.8 mph WNW9.3 kmh WNW 11.5 mph18.5 kmh 30.02 in1016.6 mb - 0.01 in0.3 mm 0.16 in4.1 mm
11:00 PM 62.8°F17.1°C 59.8°F15.4°C 90% 6.9 mph SW11.1 kmh SW 11.5 mph18.5 kmh 30.02 in1016.6 mb - 0.01 in0.3 mm 1.04 in26.4 mm
11:10 PM 62.7°F17.1°C 59.7°F15.4°C 90% 8.1 mph SSW13.0 kmh SSW 16.1 mph25.9 kmh 30.02 in1016.6 mb - 0.00 in0.0 mm 1.04 in26.4 mm
11:20 PM 62.5°F16.9°C 59.5°F15.3°C 90% 6.9 mph W11.1 kmh W 13.8 mph22.2 kmh 30.02 in1016.6 mb - 0.00 in0.0 mm 1.04 in26.4 mm
11:30 PM 62.3°F16.8°C 59.3°F15.2°C 90% 5.8 mph WNW9.3 kmh WNW 11.5 mph18.5 kmh 30.02 in1016.6 mb - 0.00 in0.0 mm 1.04 in26.4 mm
11:40 PM 62.0°F16.7°C 59.0°F15.0°C 90% 5.8 mph SSW9.3 kmh SSW 11.5 mph18.5 kmh 30.02 in1016.6 mb - 0.00 in0.0 mm 1.04 in26.4 mm
11:50 PM 61.9°F16.6°C 59.2°F15.1°C 91% 6.9 mph WSW11.1 kmh WSW 9.2 mph14.8 kmh 30.02 in1016.6 mb - 0.00 in0.0 mm 1.04 in26.4 mm